Time;durP1;ratioP1;P1;durP2;ratioP2;P2;SDS_P1;SDS_P2;PMS_P1;PMS_P2;Temp;Humidity;BMP_temperature;BMP_pressure;BME280_temperature;BME280_humidity;BME280_pressure;Samples;Min_cycle;Max_cycle;Signal;HPM_P1;HPM_P2
2023/01/26 00:02:15;;;;;;;8.07;7.30;;;20.60;66.50;;;;;;4863359;29;20206;-83
2023/01/26 00:04:42;;;;;;;10.05;7.60;;;20.60;66.50;;;;;;4883618;29;20567;-84
2023/01/26 00:07:09;;;;;;;7.70;7.03;;;20.60;66.50;;;;;;4886635;29;20730;-85
2023/01/26 00:09:36;;;;;;;6.97;6.28;;;20.60;66.50;;;;;;4883943;29;20224;-83
2023/01/26 00:12:02;;;;;;;7.57;6.88;;;20.60;66.50;;;;;;4884571;29;20212;-86
2023/01/26 00:14:48;;;;;;;9.32;8.50;;;20.60;66.50;;;;;;4887141;29;20222;-84
2023/01/26 00:17:24;;;;;;;8.00;7.30;;;20.60;66.50;;;;;;4883472;29;20215;-87
2023/01/26 00:19:56;;;;;;;8.18;7.38;;;20.60;66.50;;;;;;4883174;29;20298;-88
2023/01/26 00:22:24;;;;;;;8.95;8.05;;;20.60;66.60;;;;;;4881100;29;20339;-81
2023/01/26 00:24:50;;;;;;;9.00;8.05;;;20.60;66.60;;;;;;4881346;29;20209;-85
2023/01/26 00:27:17;;;;;;;9.57;8.68;;;20.60;66.50;;;;;;4880068;29;20228;-84
2023/01/26 00:29:45;;;;;;;8.48;7.55;;;20.70;66.70;;;;;;4883575;29;20222;-84
2023/01/26 00:32:11;;;;;;;8.65;7.85;;;20.70;66.70;;;;;;4881740;29;20712;-84
2023/01/26 00:34:39;;;;;;;8.48;7.63;;;20.60;66.60;;;;;;4882768;29;20211;-83
2023/01/26 00:37:06;;;;;;;8.23;7.43;;;20.60;66.60;;;;;;4883004;29;20205;-83
2023/01/26 00:39:34;;;;;;;8.15;7.35;;;20.70;66.70;;;;;;4883569;29;20579;-86
2023/01/26 00:42:08;;;;;;;8.80;8.00;;;20.70;66.80;;;;;;4886120;29;20207;-88
2023/01/26 00:44:37;;;;;;;8.55;7.70;;;20.70;66.70;;;;;;4882563;29;20213;-78
2023/01/26 00:47:04;;;;;;;7.75;6.95;;;20.60;66.70;;;;;;4883034;29;20291;-78
2023/01/26 00:49:31;;;;;;;9.40;8.50;;;20.70;67.00;;;;;;4886416;29;20546;-77
2023/01/26 00:51:59;;;;;;;8.52;7.68;;;20.60;66.80;;;;;;4884106;29;20227;-81
2023/01/26 00:54:26;;;;;;;9.45;8.45;;;20.60;66.70;;;;;;4882081;29;20661;-80
2023/01/26 00:56:53;;;;;;;9.30;8.40;;;20.60;66.60;;;;;;4881651;29;20207;-81
2023/01/26 00:59:20;;;;;;;11.05;9.95;;;20.60;66.60;;;;;;4882478;29;20671;-81
2023/01/26 01:01:48;;;;;;;10.50;9.48;;;20.60;66.60;;;;;;4882960;29;20643;-81
2023/01/26 01:04:16;;;;;;;9.88;9.02;;;20.60;66.50;;;;;;4883941;29;20212;-81
2023/01/26 01:06:43;;;;;;;9.43;8.57;;;20.60;66.50;;;;;;4883101;29;20708;-80
2023/01/26 01:09:12;;;;;;;8.70;7.90;;;20.50;66.40;;;;;;4883282;29;20602;-80
2023/01/26 01:11:39;;;;;;;8.80;8.00;;;20.50;66.30;;;;;;4883425;29;20216;-81
2023/01/26 01:14:06;;;;;;;9.50;7.78;;;20.50;66.30;;;;;;4885826;29;20215;-79
2023/01/26 01:16:32;;;;;;;9.23;8.32;;;20.50;66.30;;;;;;4882165;29;20202;-81
2023/01/26 01:18:59;;;;;;;9.68;8.77;;;20.50;66.30;;;;;;4884448;29;20206;-79
2023/01/26 01:21:26;;;;;;;9.50;8.60;;;20.50;66.30;;;;;;4882330;29;20208;-80
2023/01/26 01:23:53;;;;;;;8.60;7.78;;;20.50;66.30;;;;;;4882711;29;20581;-79
2023/01/26 01:26:21;;;;;;;10.15;8.90;;;20.50;66.20;;;;;;4884760;29;20209;-80
2023/01/26 01:28:49;;;;;;;10.45;9.45;;;20.50;66.20;;;;;;4885763;29;20236;-81
2023/01/26 01:31:16;;;;;;;9.93;8.98;;;20.50;66.10;;;;;;4883143;29;20243;-81
2023/01/26 01:33:43;;;;;;;9.40;8.45;;;20.50;66.00;;;;;;4884410;29;20780;-81
2023/01/26 01:36:13;;;;;;;8.98;8.07;;;20.50;66.00;;;;;;4882015;29;20263;-81
2023/01/26 01:38:41;;;;;;;8.82;8.00;;;20.50;66.00;;;;;;4882038;29;20619;-82
2023/01/26 01:41:10;;;;;;;9.30;8.35;;;20.50;66.00;;;;;;4882806;29;20213;-81
2023/01/26 01:43:39;;;;;;;8.40;7.50;;;20.50;66.00;;;;;;4884488;29;20216;-80
2023/01/26 01:46:12;;;;;;;9.90;8.98;;;20.50;65.90;;;;;;4882747;29;20666;-80
2023/01/26 01:48:45;;;;;;;9.15;8.35;;;20.50;66.00;;;;;;4881674;29;20230;-80
2023/01/26 01:51:16;;;;;;;9.45;8.55;;;20.50;66.00;;;;;;4882206;29;20556;-80
2023/01/26 01:53:46;;;;;;;9.38;8.02;;;20.50;65.90;;;;;;4881524;29;20327;-81
2023/01/26 01:56:20;;;;;;;8.82;7.90;;;20.50;65.90;;;;;;4881032;29;20215;-81
2023/01/26 01:58:53;;;;;;;9.18;8.27;;;20.50;66.70;;;;;;4882372;29;20297;-80
2023/01/26 02:01:20;;;;;;;10.18;9.13;;;20.50;65.90;;;;;;4881049;29;20689;-80
2023/01/26 02:03:51;;;;;;;9.35;8.35;;;20.50;65.90;;;;;;4883760;29;20681;-81
2023/01/26 02:06:22;;;;;;;10.50;9.40;;;20.50;65.90;;;;;;4881944;29;20195;-80
2023/01/26 02:08:51;;;;;;;9.82;8.80;;;20.50;65.80;;;;;;4882056;29;21316;-80
2023/01/26 02:11:22;;;;;;;8.30;7.50;;;20.40;65.70;;;;;;4882062;29;20215;-79
2023/01/26 02:13:51;;;;;;;9.68;8.68;;;20.40;65.70;;;;;;4883082;29;20207;-80
2023/01/26 02:16:19;;;;;;;11.05;9.40;;;20.40;65.70;;;;;;4881890;29;20212;-80
2023/01/26 02:18:46;;;;;;;8.35;7.55;;;20.40;65.70;;;;;;4882897;29;20208;-80
2023/01/26 02:21:16;;;;;;;10.05;8.75;;;20.40;65.70;;;;;;4884560;29;20698;-80
2023/01/26 02:23:55;;;;;;;10.00;8.15;;;20.40;65.70;;;;;;4882180;29;20212;-80
2023/01/26 02:26:24;;;;;;;9.40;8.50;;;20.40;65.70;;;;;;4880138;29;20209;-80
2023/01/26 02:28:54;;;;;;;8.68;7.88;;;20.40;65.70;;;;;;4883438;29;20712;-80
2023/01/26 02:31:23;;;;;;;10.52;9.52;;;20.40;65.70;;;;;;4883826;29;20212;-79
2023/01/26 02:33:50;;;;;;;9.38;8.48;;;20.40;65.60;;;;;;4883136;29;20215;-80
2023/01/26 02:36:20;;;;;;;10.07;9.07;;;20.40;65.60;;;;;;4881182;29;20307;-79
2023/01/26 02:38:55;;;;;;;8.90;8.05;;;20.40;65.60;;;;;;4881709;29;20234;-79
2023/01/26 02:44:10;;;;;;;8.75;7.75;;;20.40;65.70;;;;;;4879968;29;20299;-80
2023/01/26 02:46:37;;;;;;;9.25;8.35;;;20.40;65.60;;;;;;4881428;29;20286;-80
2023/01/26 02:51:48;;;;;;;10.98;9.90;;;20.40;65.60;;;;;;4883035;29;20226;-79
2023/01/26 02:56:57;;;;;;;9.73;8.73;;;20.40;65.60;;;;;;4879264;29;20193;-80
2023/01/26 02:59:23;;;;;;;10.55;9.52;;;20.40;65.60;;;;;;4880422;29;20583;-80
2023/01/26 03:01:52;;;;;;;8.55;7.75;;;20.30;65.40;;;;;;4881093;29;20205;-80
2023/01/26 03:04:19;;;;;;;9.25;8.35;;;20.30;65.40;;;;;;4884242;29;20221;-81
2023/01/26 03:06:46;;;;;;;10.65;9.35;;;20.30;65.40;;;;;;4882132;29;20208;-81
2023/01/26 03:09:12;;;;;;;10.43;9.43;;;20.30;65.40;;;;;;4882842;29;20222;-81
2023/01/26 03:11:41;;;;;;;10.27;9.27;;;20.30;65.40;;;;;;4884141;29;20264;-81
2023/01/26 03:14:10;;;;;;;9.05;8.25;;;20.30;65.40;;;;;;4880416;29;20200;-81
2023/01/26 03:16:36;;;;;;;9.88;8.98;;;20.30;65.40;;;;;;4883509;29;20739;-81
2023/01/26 03:27:28;;;;;;;8.88;7.97;;;20.30;65.40;;;;;;4883619;29;20562;-81
2023/01/26 03:29:57;;;;;;;9.00;8.10;;;20.30;65.40;;;;;;4884530;29;20581;-80
2023/01/26 03:32:25;;;;;;;9.32;8.43;;;20.30;65.40;;;;;;4886836;29;20211;-81
2023/01/26 03:34:51;;;;;;;9.23;8.32;;;20.30;65.30;;;;;;4883870;29;20293;-80
2023/01/26 03:37:21;;;;;;;10.05;9.02;;;20.30;65.30;;;;;;4884307;29;20207;-81
2023/01/26 03:56:23;;;;;;;9.85;8.85;;;20.20;65.20;;;;;;4884592;29;20217;-80
2023/01/26 03:58:52;;;;;;;8.70;7.85;;;20.20;65.20;;;;;;4884805;29;20654;-81
2023/01/26 04:01:25;;;;;;;9.55;8.55;;;20.20;65.20;;;;;;4882486;29;20215;-80
2023/01/26 04:09:23;;;;;;;9.80;8.82;;;20.20;65.20;;;;;;4884886;29;20213;-79
2023/01/26 04:11:50;;;;;;;9.88;8.90;;;20.20;65.20;;;;;;4884500;29;20210;-80
2023/01/26 04:22:39;;;;;;;9.18;8.25;;;20.20;65.20;;;;;;4883017;29;20214;-78
2023/01/26 04:25:07;;;;;;;8.88;7.97;;;20.20;65.20;;;;;;4886904;29;20643;-78
2023/01/26 04:27:34;;;;;;;10.27;9.18;;;20.20;65.20;;;;;;4883937;29;20223;-79
2023/01/26 04:30:00;;;;;;;9.05;7.80;;;20.20;65.10;;;;;;4884023;29;20210;-79
2023/01/26 04:32:29;;;;;;;9.23;8.32;;;20.20;65.10;;;;;;4883146;29;20214;-80
2023/01/26 04:34:56;;;;;;;9.80;8.80;;;20.20;65.10;;;;;;4883379;29;20679;-80
2023/01/26 04:37:23;;;;;;;8.80;7.95;;;20.10;65.00;;;;;;4885611;29;20623;-79
2023/01/26 04:39:51;;;;;;;10.10;8.80;;;20.20;65.10;;;;;;4882915;29;20261;-80
2023/01/26 04:42:17;;;;;;;9.48;8.57;;;20.20;65.10;;;;;;4883745;29;20212;-80
2023/01/26 04:44:44;;;;;;;9.65;8.63;;;20.20;65.10;;;;;;4883246;29;20226;-80
2023/01/26 04:47:11;;;;;;;10.95;9.85;;;20.20;65.10;;;;;;4882209;29;20212;-80
2023/01/26 04:49:39;;;;;;;10.70;9.70;;;20.10;65.00;;;;;;4881861;29;20208;-79
2023/01/26 04:52:06;;;;;;;9.93;9.02;;;20.10;65.00;;;;;;4883833;29;20227;-80
2023/01/26 04:54:32;;;;;;;9.52;8.63;;;20.20;65.10;;;;;;4885134;29;20596;-80
2023/01/26 04:56:59;;;;;;;8.93;8.02;;;20.10;64.90;;;;;;4882241;29;20313;-80
2023/01/26 04:59:26;;;;;;;8.77;7.97;;;20.10;64.90;;;;;;4883492;29;20204;-81
2023/01/26 05:01:53;;;;;;;9.25;8.40;;;20.10;65.00;;;;;;4884087;29;20734;-80
2023/01/26 05:04:20;;;;;;;10.55;9.55;;;20.10;64.90;;;;;;4884215;29;20211;-80
2023/01/26 05:06:48;;;;;;;9.50;8.60;;;20.10;64.90;;;;;;4881730;29;20330;-80
2023/01/26 05:09:15;;;;;;;11.13;9.93;;;20.10;64.90;;;;;;4882779;29;20229;-80
2023/01/26 05:11:42;;;;;;;9.77;8.93;;;20.10;64.90;;;;;;4883960;29;20662;-79
2023/01/26 05:14:09;;;;;;;10.68;9.68;;;20.10;65.00;;;;;;4886227;29;20694;-80
2023/01/26 05:16:35;;;;;;;9.60;8.60;;;20.10;65.70;;;;;;4883597;29;20207;-80
2023/01/26 05:19:02;;;;;;;10.02;9.13;;;20.10;65.00;;;;;;4881121;29;20210;-80
2023/01/26 05:21:29;;;;;;;9.88;8.88;;;20.10;64.90;;;;;;4884488;29;20217;-79
2023/01/26 05:23:57;;;;;;;9.32;8.38;;;20.10;64.90;;;;;;4883984;29;20203;-80
2023/01/26 05:26:24;;;;;;;10.77;9.68;;;20.10;64.90;;;;;;4883000;29;20297;-81
2023/01/26 05:28:51;;;;;;;9.20;8.20;;;20.10;64.90;;;;;;4884105;29;20230;-81
2023/01/26 05:31:17;;;;;;;9.10;8.20;;;20.10;64.90;;;;;;4883565;29;20211;-80
2023/01/26 05:33:44;;;;;;;9.48;8.48;;;20.10;64.90;;;;;;4883394;29;20590;-80
2023/01/26 05:36:11;;;;;;;9.23;8.32;;;20.10;64.90;;;;;;4882570;29;20919;-79
2023/01/26 05:38:38;;;;;;;9.65;8.68;;;20.10;64.90;;;;;;4886370;29;20551;-79
2023/01/26 05:41:08;;;;;;;9.98;8.98;;;20.10;64.90;;;;;;4880445;29;20218;-79
2023/01/26 05:43:34;;;;;;;8.52;7.78;;;20.10;64.90;;;;;;4882356;29;20302;-79
2023/01/26 05:46:02;;;;;;;9.40;8.50;;;20.10;64.80;;;;;;4883848;29;20215;-79
2023/01/26 05:48:29;;;;;;;10.73;9.70;;;20.10;64.80;;;;;;4882373;29;20237;-79
2023/01/26 05:50:57;;;;;;;9.68;8.82;;;20.10;64.90;;;;;;4881588;29;20211;-79
2023/01/26 05:53:24;;;;;;;9.38;8.27;;;20.10;64.80;;;;;;4882755;29;20283;-79
2023/01/26 05:55:51;;;;;;;10.18;9.10;;;20.00;64.80;;;;;;4882814;29;20213;-80
2023/01/26 05:58:19;;;;;;;9.25;8.32;;;20.10;64.80;;;;;;4883080;29;20222;-79
2023/01/26 06:00:46;;;;;;;8.50;7.80;;;20.10;64.80;;;;;;4882894;29;20204;-79
2023/01/26 06:03:12;;;;;;;9.20;8.30;;;20.10;64.80;;;;;;4883985;29;20206;-80
2023/01/26 06:05:39;;;;;;;10.13;9.13;;;20.00;64.70;;;;;;4882649;29;20312;-79
2023/01/26 06:08:06;;;;;;;9.20;8.30;;;20.00;64.60;;;;;;4882009;29;20233;-79
2023/01/26 06:10:33;;;;;;;10.13;9.13;;;20.00;64.70;;;;;;4882974;29;20666;-79
2023/01/26 06:13:00;;;;;;;9.20;8.30;;;20.00;64.60;;;;;;4879871;29;20659;-79
2023/01/26 06:15:28;;;;;;;10.35;8.93;;;20.00;64.60;;;;;;4881323;29;20213;-79
2023/01/26 06:17:55;;;;;;;8.43;7.63;;;20.00;64.70;;;;;;4883086;29;20203;-80
2023/01/26 06:20:22;;;;;;;9.98;8.98;;;20.00;64.60;;;;;;4881977;29;20570;-79
2023/01/26 06:22:48;;;;;;;9.70;8.70;;;20.00;64.60;;;;;;4880740;29;20662;-79
2023/01/26 06:25:15;;;;;;;10.07;9.07;;;20.00;64.80;;;;;;4880629;29;20202;-79
2023/01/26 06:27:42;;;;;;;11.45;10.35;;;20.00;64.60;;;;;;4881293;29;20206;-79
2023/01/26 06:30:10;;;;;;;8.20;7.40;;;20.00;64.60;;;;;;4883830;29;20738;-79
2023/01/26 06:32:38;;;;;;;9.43;8.52;;;19.90;64.50;;;;;;4883444;29;20227;-79
2023/01/26 06:35:07;;;;;;;10.70;9.70;;;19.90;64.60;;;;;;4882365;29;20253;-79
2023/01/26 06:37:34;;;;;;;10.10;9.10;;;19.90;64.60;;;;;;4883961;29;20218;-80
2023/01/26 06:40:01;;;;;;;9.18;8.27;;;19.90;64.50;;;;;;4882881;29;20207;-80
2023/01/26 06:42:27;;;;;;;9.70;8.80;;;20.00;64.60;;;;;;4884292;29;20214;-81
2023/01/26 06:44:56;;;;;;;10.65;9.30;;;20.00;64.60;;;;;;4883211;29;20567;-80
2023/01/26 06:47:23;;;;;;;10.52;9.52;;;20.00;64.60;;;;;;4883597;29;20218;-80
2023/01/26 06:49:51;;;;;;;8.75;7.60;;;20.00;64.50;;;;;;4881663;29;20730;-81
2023/01/26 06:52:36;;;;;;;9.20;8.32;;;20.00;64.50;;;;;;4881929;29;20310;-80
2023/01/26 06:55:03;;;;;;;9.57;8.68;;;20.00;64.50;;;;;;4884376;29;20217;-80
2023/01/26 06:57:30;;;;;;;9.75;8.85;;;20.00;64.50;;;;;;4869223;29;20215;-80
2023/01/26 06:59:57;;;;;;;10.48;9.10;;;20.00;64.50;;;;;;4886350;29;20597;-80
2023/01/26 07:02:24;;;;;;;10.50;9.43;;;20.00;64.50;;;;;;4884119;29;20203;-80
2023/01/26 07:04:54;;;;;;;10.65;9.55;;;20.00;64.50;;;;;;4886970;29;20301;-86
2023/01/26 07:07:20;;;;;;;12.63;8.73;;;20.00;64.50;;;;;;4886182;29;20217;-79
2023/01/26 07:09:50;;;;;;;11.32;9.10;;;20.00;65.00;;;;;;4885335;29;20606;-82
2023/01/26 07:12:17;;;;;;;10.40;9.20;;;20.10;65.00;;;;;;4885816;29;20210;-82
2023/01/26 07:14:44;;;;;;;12.05;9.45;;;20.10;64.90;;;;;;4886136;29;20211;-84
2023/01/26 07:17:10;;;;;;;10.43;8.23;;;20.10;64.80;;;;;;4886925;29;20214;-81
2023/01/26 07:19:37;;;;;;;12.13;10.20;;;20.10;64.90;;;;;;4886631;29;20217;-83
2023/01/26 07:22:16;;;;;;;9.90;8.88;;;20.00;64.70;;;;;;4888086;29;20204;-89
2023/01/26 07:24:43;;;;;;;15.95;9.27;;;20.00;64.60;;;;;;4903895;29;20198;-89
2023/01/26 07:27:10;;;;;;;11.55;9.43;;;20.00;64.90;;;;;;4905162;29;20292;-89
2023/01/26 07:29:36;;;;;;;10.43;8.23;;;20.10;65.00;;;;;;4924152;23;20209;-61
2023/01/26 07:32:03;;;;;;;11.52;9.35;;;20.10;65.10;;;;;;4901446;29;20209;-60
2023/01/26 07:34:30;;;;;;;10.00;9.00;;;20.10;65.20;;;;;;4902930;29;20637;-56
2023/01/26 07:36:57;;;;;;;9.25;8.30;;;20.10;65.20;;;;;;4901621;29;20497;-58
2023/01/26 07:39:25;;;;;;;9.90;8.90;;;20.10;65.20;;;;;;4903474;29;20207;-59
2023/01/26 07:41:52;;;;;;;9.60;7.72;;;20.20;65.40;;;;;;4901085;29;20207;-55
2023/01/26 07:44:19;;;;;;;9.30;8.40;;;20.20;65.40;;;;;;4902652;29;20962;-55
2023/01/26 07:46:45;;;;;;;9.43;8.63;;;20.20;66.30;;;;;;4898543;29;20228;-54
2023/01/26 07:49:12;;;;;;;9.40;8.50;;;20.20;65.60;;;;;;4902108;29;20215;-56
2023/01/26 07:51:39;;;;;;;7.93;7.13;;;20.20;65.60;;;;;;4901014;29;20213;-55
2023/01/26 07:54:06;;;;;;;8.63;7.82;;;20.20;65.70;;;;;;4902740;29;21020;-54
2023/01/26 07:56:35;;;;;;;10.00;9.00;;;20.20;65.70;;;;;;4899040;29;20428;-54
2023/01/26 07:59:01;;;;;;;8.60;7.80;;;20.20;65.80;;;;;;4900970;29;20210;-57
2023/01/26 08:01:28;;;;;;;9.88;8.90;;;20.30;65.80;;;;;;4901469;29;20678;-57
2023/01/26 08:03:55;;;;;;;10.32;9.32;;;20.30;65.90;;;;;;4900146;29;20208;-53
2023/01/26 08:06:23;;;;;;;10.20;9.20;;;20.30;65.90;;;;;;4903401;29;20210;-58
2023/01/26 08:08:52;;;;;;;9.65;8.73;;;20.30;65.80;;;;;;4901370;29;20605;-57
2023/01/26 08:11:21;;;;;;;10.98;9.98;;;20.30;65.80;;;;;;4901951;29;20211;-61
2023/01/26 08:13:49;;;;;;;10.43;9.35;;;20.30;65.80;;;;;;4901991;29;20238;-58
2023/01/26 08:16:16;;;;;;;10.30;9.30;;;20.30;65.80;;;;;;4901159;29;20203;-56
2023/01/26 08:18:45;;;;;;;9.98;9.05;;;20.30;65.70;;;;;;4901191;29;20687;-57
2023/01/26 08:21:14;;;;;;;10.27;9.15;;;20.30;65.70;;;;;;4902801;29;20203;-62
2023/01/26 08:23:40;;;;;;;10.05;9.15;;;20.30;65.70;;;;;;4901952;29;20212;-56
2023/01/26 08:26:10;;;;;;;11.40;10.30;;;20.30;65.80;;;;;;4900580;29;20226;-60
2023/01/26 08:28:37;;;;;;;9.63;8.52;;;20.30;65.70;;;;;;4901871;29;20490;-58
2023/01/26 08:31:07;;;;;;;10.95;9.90;;;20.30;65.80;;;;;;4899683;29;20219;-60
2023/01/26 08:33:34;;;;;;;9.50;8.50;;;20.30;65.70;;;;;;4900963;29;20500;-60
2023/01/26 08:36:01;;;;;;;9.15;8.25;;;20.30;65.80;;;;;;4900426;29;20198;-62
2023/01/26 08:38:30;;;;;;;10.18;9.23;;;20.30;65.80;;;;;;4902571;29;20226;-60
2023/01/26 08:40:56;;;;;;;9.35;8.45;;;20.40;65.90;;;;;;4900586;29;20586;-58
2023/01/26 08:43:23;;;;;;;12.20;11.00;;;20.40;65.90;;;;;;4900547;29;20206;-51
2023/01/26 08:45:50;;;;;;;11.05;9.95;;;20.30;65.90;;;;;;4916752;23;20240;-80
2023/01/26 08:48:18;;;;;;;15.25;13.85;;;20.30;65.70;;;;;;4903885;29;20207;-79
2023/01/26 08:50:45;;;;;;;14.18;12.15;;;20.30;65.60;;;;;;4902447;29;20202;-80
2023/01/26 08:53:12;;;;;;;15.95;14.35;;;20.10;65.00;;;;;;4902085;29;20231;-80
2023/01/26 08:55:39;;;;;;;15.00;13.50;;;20.10;64.70;;;;;;4902115;29;20198;-84
2023/01/26 08:58:06;;;;;;;15.32;12.18;;;20.10;64.80;;;;;;4903992;29;20582;-86
2023/01/26 09:00:33;;;;;;;16.33;11.40;;;20.10;64.60;;;;;;4902636;29;20200;-85
2023/01/26 09:03:00;;;;;;;13.07;11.77;;;20.10;64.60;;;;;;4903751;29;20207;-87
2023/01/26 09:05:32;;;;;;;18.20;13.27;;;20.20;64.70;;;;;;4903165;29;20293;-82
2023/01/26 09:07:59;;;;;;;14.43;10.65;;;20.10;64.40;;;;;;4902675;29;20207;-80
2023/01/26 09:10:26;;;;;;;13.70;12.38;;;20.20;64.50;;;;;;4900673;29;20235;-79
2023/01/26 09:12:53;;;;;;;13.18;11.98;;;20.20;64.50;;;;;;4904278;29;20207;-82
2023/01/26 09:15:19;;;;;;;13.23;11.93;;;20.10;64.40;;;;;;4900232;29;20200;-80
2023/01/26 09:17:49;;;;;;;13.73;12.32;;;20.20;64.60;;;;;;4904221;29;20210;-83
2023/01/26 09:20:17;;;;;;;12.32;11.13;;;20.20;64.60;;;;;;4902481;29;20651;-82
2023/01/26 09:22:46;;;;;;;12.52;11.32;;;20.20;64.60;;;;;;4906471;29;20217;-85
2023/01/26 09:25:13;;;;;;;12.35;11.15;;;20.20;64.60;;;;;;4902859;29;20215;-86
2023/01/26 09:27:40;;;;;;;13.05;11.75;;;20.20;64.60;;;;;;4902107;29;20214;-82
2023/01/26 09:30:09;;;;;;;12.63;11.38;;;20.20;64.60;;;;;;4900557;29;20265;-81
2023/01/26 09:32:36;;;;;;;12.65;11.35;;;20.20;64.70;;;;;;4898410;29;20297;-80
2023/01/26 09:35:03;;;;;;;25.00;11.02;;;20.10;64.50;;;;;;4902046;29;20206;-82
2023/01/26 09:37:29;;;;;;;13.20;11.90;;;20.10;64.50;;;;;;4902560;29;20293;-82
2023/01/26 09:39:57;;;;;;;13.02;11.65;;;20.10;64.50;;;;;;4901931;29;20503;-83
2023/01/26 09:42:39;;;;;;;12.60;11.00;;;20.10;64.50;;;;;;4900226;29;20571;-83
2023/01/26 09:45:21;;;;;;;13.32;12.02;;;20.10;64.40;;;;;;4902138;29;20235;-83
2023/01/26 09:47:59;;;;;;;13.45;12.13;;;20.20;64.60;;;;;;4900244;29;20548;-82
2023/01/26 09:50:29;;;;;;;14.15;11.05;;;20.20;64.50;;;;;;4900604;29;20773;-82
2023/01/26 09:53:02;;;;;;;12.38;11.18;;;20.20;64.50;;;;;;4900148;29;20231;-82
2023/01/26 09:55:30;;;;;;;12.77;11.57;;;20.20;64.50;;;;;;4899830;29;20552;-83
2023/01/26 09:58:00;;;;;;;12.95;11.60;;;20.20;64.50;;;;;;4900016;29;20206;-83
2023/01/26 10:00:32;;;;;;;11.55;10.38;;;20.20;64.50;;;;;;4900017;29;20638;-82
2023/01/26 10:03:12;;;;;;;11.48;10.38;;;20.20;64.50;;;;;;4898325;29;20202;-81
2023/01/26 10:05:45;;;;;;;11.82;10.70;;;20.20;64.50;;;;;;4898563;29;20700;-82
2023/01/26 10:08:14;;;;;;;13.15;11.93;;;20.20;64.50;;;;;;4898395;29;20206;-82
2023/01/26 10:10:46;;;;;;;13.13;11.70;;;20.20;64.50;;;;;;4901676;29;20239;-83
2023/01/26 10:13:15;;;;;;;11.95;10.73;;;20.20;64.50;;;;;;4899025;29;20212;-82
2023/01/26 10:15:45;;;;;;;12.43;11.23;;;20.20;64.50;;;;;;4899080;29;20204;-82
2023/01/26 10:18:17;;;;;;;11.73;10.73;;;20.20;64.50;;;;;;4898647;29;20222;-82
2023/01/26 10:20:47;;;;;;;14.80;10.55;;;20.20;64.50;;;;;;4900023;29;20219;-82
2023/01/26 10:23:17;;;;;;;11.18;10.18;;;20.20;64.50;;;;;;4899187;29;20211;-82
2023/01/26 10:25:46;;;;;;;12.55;11.25;;;20.20;65.30;;;;;;4900930;29;20258;-82
2023/01/26 10:28:15;;;;;;;11.43;10.32;;;20.10;64.30;;;;;;4905426;29;20670;-81
2023/01/26 10:30:44;;;;;;;12.32;11.13;;;20.20;64.50;;;;;;4903482;29;20579;-82
2023/01/26 10:33:16;;;;;;;11.48;10.27;;;20.20;64.50;;;;;;4904545;29;20213;-82
2023/01/26 10:35:43;;;;;;;12.20;10.95;;;20.10;64.40;;;;;;4903547;29;21876;-81
2023/01/26 10:38:40;;;;;;;13.27;11.90;;;20.10;64.40;;;;;;4904191;29;20217;-84
2023/01/26 10:44:27;;;;;;;11.63;10.43;;;20.10;64.40;;;;;;5100580;28;20609;-89
2023/01/26 10:47:06;;;;;;;14.95;9.48;;;20.10;64.50;;;;;;5099604;28;20209;-88
2023/01/26 10:49:33;;;;;;;12.52;10.07;;;20.20;64.70;;;;;;5083276;28;20195;-86
2023/01/26 10:52:09;;;;;;;10.35;9.35;;;20.10;64.60;;;;;;5083464;28;20307;-84
2023/01/26 10:54:38;;;;;;;13.23;9.95;;;20.10;64.80;;;;;;5088452;28;20197;-84
2023/01/26 10:57:14;;;;;;;12.65;9.57;;;20.20;65.00;;;;;;5074846;28;20635;-84
2023/01/26 10:59:48;;;;;;;11.55;9.93;;;20.20;65.10;;;;;;5084295;28;20194;-83
2023/01/26 11:02:23;;;;;;;11.73;10.52;;;20.20;65.10;;;;;;5078763;28;20228;-87
2023/01/26 11:05:18;;;;;;;12.43;10.40;;;20.20;65.20;;;;;;5080221;28;20204;-88
2023/01/26 11:07:46;;;;;;;11.70;10.20;;;20.20;65.30;;;;;;5079745;28;20209;-88
2023/01/26 11:10:19;;;;;;;12.68;10.05;;;20.20;65.40;;;;;;5080053;28;21909;-87
2023/01/26 11:12:46;;;;;;;9.95;9.05;;;20.20;65.40;;;;;;5079369;28;20675;-87
2023/01/26 11:15:19;;;;;;;10.98;9.98;;;20.30;65.60;;;;;;5078439;28;20198;-83
2023/01/26 11:17:54;;;;;;;10.00;9.02;;;20.30;65.70;;;;;;5077600;28;20198;-84
2023/01/26 11:20:42;;;;;;;10.00;9.00;;;20.30;65.80;;;;;;5079364;28;20217;-83
2023/01/26 11:23:37;;;;;;;9.52;8.52;;;20.30;65.80;;;;;;5086795;28;20211;-87
2023/01/26 11:26:46;;;;;;;16.38;10.10;;;20.30;65.90;;;;;;5083858;28;20298;-86
2023/01/26 11:29:39;;;;;;;10.43;9.37;;;20.40;66.30;;;;;;5078985;28;20501;-84
2023/01/26 11:32:17;;;;;;;10.93;9.63;;;20.40;66.20;;;;;;5075107;28;20926;-83
2023/01/26 11:34:55;;;;;;;10.90;9.25;;;20.40;66.30;;;;;;5075644;28;20740;-84
2023/01/26 11:37:39;;;;;;;13.15;8.18;;;20.40;66.40;;;;;;5078924;28;20197;-83
2023/01/26 11:40:23;;;;;;;9.52;8.57;;;20.40;66.40;;;;;;5079509;28;20646;-84
2023/01/26 11:43:26;;;;;;;9.95;8.95;;;20.40;66.50;;;;;;5077049;28;20222;-82
2023/01/26 11:46:19;;;;;;;8.88;8.00;;;20.40;66.60;;;;;;5040208;28;20220;-82
2023/01/26 11:48:58;;;;;;;8.02;7.10;;;20.40;66.70;;;;;;5081320;28;20195;-82
2023/01/26 11:51:36;;;;;;;10.23;8.75;;;20.40;66.70;;;;;;5085612;28;20217;-82
2023/01/26 11:54:28;;;;;;;13.52;8.80;;;20.40;66.70;;;;;;5077045;28;20195;-84
2023/01/26 11:57:04;;;;;;;8.70;7.88;;;20.40;66.80;;;;;;5064474;28;20225;-82
2023/01/26 11:59:35;;;;;;;8.75;7.95;;;20.40;66.80;;;;;;5067521;28;20242;-82
2023/01/26 12:02:05;;;;;;;9.32;8.43;;;20.40;66.80;;;;;;5067624;28;20202;-82
2023/01/26 12:04:44;;;;;;;9.30;8.48;;;20.40;66.80;;;;;;5066565;28;20198;-85
2023/01/26 12:07:15;;;;;;;8.98;8.07;;;20.40;66.80;;;;;;5061806;28;20198;-82
2023/01/26 12:09:46;;;;;;;10.43;9.40;;;20.40;66.80;;;;;;5060100;28;20571;-84
2023/01/26 12:12:19;;;;;;;9.20;8.27;;;20.40;66.80;;;;;;5064038;28;20203;-83
2023/01/26 12:14:50;;;;;;;8.27;7.32;;;20.40;66.80;;;;;;5058718;28;20209;-86
2023/01/26 12:17:28;;;;;;;8.73;7.90;;;20.40;66.90;;;;;;5063755;28;20195;-82
2023/01/26 12:20:04;;;;;;;9.30;8.48;;;20.40;66.90;;;;;;5062616;28;20226;-85
2023/01/26 12:22:33;;;;;;;8.07;7.28;;;20.40;66.80;;;;;;5063924;28;20223;-82
2023/01/26 12:25:17;;;;;;;9.68;8.60;;;20.40;66.80;;;;;;5063425;28;20242;-84
2023/01/26 12:27:49;;;;;;;9.13;8.30;;;20.40;66.80;;;;;;5062898;28;20202;-84
2023/01/26 12:30:30;;;;;;;8.68;7.68;;;20.40;66.80;;;;;;5063828;28;20229;-83
2023/01/26 12:32:57;;;;;;;7.82;7.10;;;20.40;66.80;;;;;;5061863;28;20653;-86
2023/01/26 12:35:43;;;;;;;8.77;7.88;;;20.40;66.80;;;;;;5063891;28;20222;-87
2023/01/26 12:38:14;;;;;;;6.43;5.53;;;20.40;66.80;;;;;;5061652;28;20195;-85
2023/01/26 12:40:50;;;;;;;9.27;7.80;;;20.40;66.80;;;;;;5070671;28;20195;-84
2023/01/26 12:44:00;;;;;;;8.75;7.85;;;20.40;66.80;;;;;;5070207;28;20317;-84
2023/01/26 12:46:31;;;;;;;8.48;7.68;;;20.40;66.80;;;;;;5069806;28;20226;-85
2023/01/26 12:49:02;;;;;;;7.78;7.00;;;20.40;66.80;;;;;;5069982;28;20211;-83
2023/01/26 12:51:36;;;;;;;7.97;7.18;;;20.50;66.90;;;;;;5068036;28;20699;-81
2023/01/26 12:54:10;;;;;;;8.57;7.78;;;20.50;66.90;;;;;;5063616;28;20202;-85
2023/01/26 12:56:42;;;;;;;7.43;6.72;;;20.50;66.90;;;;;;5061672;28;20671;-85
2023/01/26 12:59:17;;;;;;;7.38;6.68;;;20.50;66.90;;;;;;5059186;28;20210;-83
2023/01/26 13:01:46;;;;;;;6.90;6.30;;;20.50;67.00;;;;;;5062792;28;20206;-85
2023/01/26 13:04:16;;;;;;;7.90;6.72;;;20.50;66.90;;;;;;5063422;28;20222;-84
2023/01/26 13:07:02;;;;;;;7.00;6.23;;;20.50;66.90;;;;;;5065432;28;20667;-85
2023/01/26 13:09:29;;;;;;;8.48;7.38;;;20.50;66.90;;;;;;5076811;28;20448;-87
2023/01/26 13:11:57;;;;;;;7.03;6.32;;;20.50;66.90;;;;;;5063483;28;20195;-84
2023/01/26 13:14:36;;;;;;;8.13;7.33;;;20.50;67.00;;;;;;5062893;28;20203;-81
2023/01/26 13:17:54;;;;;;;7.63;6.38;;;20.50;67.00;;;;;;5060289;28;20453;-83
2023/01/26 13:20:45;;;;;;;7.63;6.97;;;20.50;66.90;;;;;;5060865;28;20241;-84
2023/01/26 13:23:42;;;;;;;7.72;7.03;;;20.50;67.00;;;;;;5065291;28;20560;-85
2023/01/26 13:26:40;;;;;;;7.20;6.60;;;20.50;67.00;;;;;;5074478;28;20199;-87
2023/01/26 13:29:32;;;;;;;6.57;5.97;;;20.50;67.00;;;;;;5057085;28;20458;-88
2023/01/26 13:32:16;;;;;;;9.52;5.97;;;20.50;67.00;;;;;;5059081;28;20298;-84
2023/01/26 13:34:47;;;;;;;7.75;7.05;;;20.50;67.00;;;;;;5020293;28;20676;-85
2023/01/26 13:37:36;;;;;;;9.00;6.60;;;20.50;67.00;;;;;;5062750;28;20203;-88
2023/01/26 13:40:13;;;;;;;7.82;7.03;;;20.50;67.00;;;;;;5069411;28;20199;-82
2023/01/26 13:42:52;;;;;;;5.25;4.80;;;20.50;66.80;;;;;;5066082;28;20210;-77
2023/01/26 13:45:28;;;;;;;3.90;3.60;;;19.20;56.70;;;;;;5063452;28;20297;-78
2023/01/26 13:47:58;;;;;;;3.30;3.00;;;18.20;54.90;;;;;;5062678;28;20197;-77
2023/01/26 13:50:30;;;;;;;4.10;3.60;;;17.60;54.20;;;;;;5063693;28;20197;-79